Algoma Mariner — CFN5517 — position and weather

sailwx.info

Track history (hours):
 
Tides and Currents Weather Stations Pressure Air Temp Water Temp Dewpoint Dewpoint Depression Visibility Wind Speed Wind Dir Waves Ship Positions

Algoma Mariner

Last reported at 2015-Aug-29 06:28 UTC. Time now 2015-Sep-01 08:02 UTC.
Position N 46°27' W 072°15'.

Length 225 m; draft 7.5 m.

Type: Cargo ship. MMSI: 316014050.

Date/timePositionNaut miles runAvg speedWind from/ knotsBaromVisibWave heightAir tempDewpointWater temp
2015-Aug-29 06:28N 46°27' W 072°15'1313.9
2015-Aug-29 05:34N 46°21' W 072°31'1211.9
2015-Aug-29 04:33N 46°14' W 072°46'62 4.2
2015-Aug-28 13:33N 45°25' W 073°39'8 7.7
2015-Aug-28 12:33N 45°22' W 073°50'5 5.1
2015-Aug-28 11:33N 45°19' W 073°55'1 1.1
2015-Aug-28 10:34N 45°18' W 073°56'6 6.3
2015-Aug-28 09:33N 45°13' W 074°02'1110.3
2015-Aug-28 08:31N 45°13' W 074°17'114 8.4
2015-Aug-27 19:03N 44°04' W 076°25'  
2015-Aug-25 07:33N 44°10' W 076°19'  
2015-Aug-22 20:23N 45°15' W 073°58'4 3.8
2015-Aug-22 19:27N 45°18' W 073°56'1 1.0
2015-Aug-22 18:33N 45°19' W 073°55'2 2.3
2015-Aug-22 17:33N 45°21' W 073°53'8 8.3
2015-Aug-22 16:33N 45°25' W 073°42'6 5.6
2015-Aug-22 15:31N 45°24' W 073°34'1 1.3
2015-Aug-22 14:33N 45°24' W 073°32'5 4.8
2015-Aug-22 13:33N 45°29' W 073°31'57 8.0
2015-Aug-22 06:23N 46°16' W 072°43'7 8.5
2015-Aug-22 05:33N 46°19' W 072°33'9 9.4
2015-Aug-22 04:33N 46°25' W 072°23'9 8.8
2015-Aug-22 03:32N 46°31' W 072°13'  
Track history (hours):
 
Tides and Currents Weather Stations Pressure Air Temp Water Temp Dewpoint Dewpoint Depression Visibility Wind Speed Wind Dir Waves Ship Positions

Algoma Mariner

Last reported at 2015-Aug-29 06:28 UTC. Time now 2015-Sep-01 08:02 UTC.
Position N 46°27' W 072°15'.

Length 225 m; draft 7.5 m.

Type: Cargo ship. MMSI: 316014050.

Date/timePositionNaut miles runAvg speedWind from/ knotsBaromVisibWave heightAir tempDewpointWater temp
2015-Aug-29 06:28N 46°27' W 072°15'1313.9
2015-Aug-29 05:34N 46°21' W 072°31'1211.9
2015-Aug-29 04:33N 46°14' W 072°46'62 4.2
2015-Aug-28 13:33N 45°25' W 073°39'8 7.7
2015-Aug-28 12:33N 45°22' W 073°50'5 5.1
2015-Aug-28 11:33N 45°19' W 073°55'1 1.1
2015-Aug-28 10:34N 45°18' W 073°56'6 6.3
2015-Aug-28 09:33N 45°13' W 074°02'1110.3
2015-Aug-28 08:31N 45°13' W 074°17'114 8.4
2015-Aug-27 19:03N 44°04' W 076°25'  
2015-Aug-25 07:33N 44°10' W 076°19'  
2015-Aug-22 20:23N 45°15' W 073°58'4 3.8
2015-Aug-22 19:27N 45°18' W 073°56'1 1.0
2015-Aug-22 18:33N 45°19' W 073°55'2 2.3
2015-Aug-22 17:33N 45°21' W 073°53'8 8.3
2015-Aug-22 16:33N 45°25' W 073°42'6 5.6
2015-Aug-22 15:31N 45°24' W 073°34'1 1.3
2015-Aug-22 14:33N 45°24' W 073°32'5 4.8
2015-Aug-22 13:33N 45°29' W 073°31'57 8.0
2015-Aug-22 06:23N 46°16' W 072°43'7 8.5
2015-Aug-22 05:33N 46°19' W 072°33'9 9.4
2015-Aug-22 04:33N 46°25' W 072°23'9 8.8
2015-Aug-22 03:32N 46°31' W 072°13'  

Dump ship's entire track history